Urb Rivera Donato, Puerto Rico
Current Conditions -  °F | °C
As of 1:53 PM on Friday 19 Dec 2014 (Local Time) from TJNR Reporting Station
Overcast Overcast  
Wind Chill: 80°   Ceiling: 5000
Heat Index: 83°   Visibility: 10mi
Dew Point: 68°   Wind: 8mph
Humidity: 67%   Direction: 70°ENE
Pressure: 29.99"   Gusts: NA
Location:  18.1494°N, 65.8294°W
Report Text: TJNR 191753Z AUTO 07007KT 10SM SCT033 BKN050 OVC070 27/20 A2999 RMK AO2 SLP155 T02670200 10289 20256 57019
Loading
Personal Weather Stations






























Interactive Weather Map New forecast layout! Learn more

10-Day Weather Forecast

Advertisements
Track Severe Weather on mobile